Terminal Aerodrome Forecast
Issued by NWS Lake Charles, LA

Home | Current Version | Previous Version | Text Only | Print | Product List | Glossary On
Versions: 1 2 3 4 5 6 7 8 9 10 11 12 13 14 15 16 17 18
715
FTUS44 KLCH 292323
TAFAEX
TAF
KAEX 292323Z 3000/3024 16009KT P6SM -RA VCTS SCT030CB BKN040
      TEMPO 3000/3003 VRB20G35KT 2SM TSRA BKN025CB
     FM300300 16013G21KT P6SM VCTS SCT030CB BKN040
      TEMPO 3003/3006 VRB20G35KT 2SM TSRA BKN025CB
     FM300700 17011KT P6SM VCSH OVC015
     FM301300 26008KT P6SM BKN025=

USA.gov is the U.S. government's official web portal to all federal, state and local government web resources and services.